BAW212 EGLL-EDDH
Flight info
| Callsign | BAW212 |
|---|---|
| Flight time | 1h 10m |
| Altitude | 37000 |
| Route | BPK Q295 SOMVA DCT MAVAS DCT GASTU DCT OSTOR/N0376F230 T904 RIBSO RIBSO7A |
| Aircraft | A320/M-SDE3FGHIRWY/LB1 |
Departure
| Time | 2026-05-07 19:27 |
|---|---|
| Airport | London Heathrow Airport (EGLL) |
Arrival
| Time | 2026-05-07 20:37 |
|---|---|
| Airport | Hamburg Helmut Schmidt Airport (EDDH) |
| Time | Latitude | Longitude | Altitude | Speed | Heading |
|---|---|---|---|---|---|
| 2026-05-07 18:42 | 51.47232 | -0.48585 | 91 ft | 0 kts | 270° |
| 2026-05-07 18:42 | 51.47233 | -0.48585 | 92 ft | 0 kts | 270° |
| 2026-05-07 19:16 | 51.47233 | -0.48563 | 89 ft | 3 kts | 266° |
| 2026-05-07 19:16 | 51.47236 | -0.48525 | 90 ft | 3 kts | 255° |
| 2026-05-07 19:17 | 51.47244 | -0.48492 | 88 ft | 3 kts | 229° |
| 2026-05-07 19:17 | 51.47260 | -0.48474 | 90 ft | 2 kts | 181° |
| 2026-05-07 19:17 | 51.47261 | -0.48474 | 90 ft | 0 kts | 180° |
| 2026-05-07 19:17 | 51.47260 | -0.48474 | 90 ft | 0 kts | 180° |
| 2026-05-07 19:20 | 51.47256 | -0.48474 | 90 ft | 2 kts | 180° |
| 2026-05-07 19:20 | 51.47237 | -0.48474 | 88 ft | 4 kts | 179° |
| 2026-05-07 19:20 | 51.47204 | -0.48473 | 86 ft | 6 kts | 179° |
| 2026-05-07 19:21 | 51.47154 | -0.48472 | 86 ft | 8 kts | 179° |
| 2026-05-07 19:21 | 51.47088 | -0.48472 | 89 ft | 11 kts | 179° |
| 2026-05-07 19:21 | 51.47019 | -0.48471 | 87 ft | 9 kts | 179° |
| 2026-05-07 19:21 | 51.46945 | -0.48470 | 87 ft | 12 kts | 179° |
| 2026-05-07 19:22 | 51.46867 | -0.48469 | 87 ft | 11 kts | 180° |
| 2026-05-07 19:22 | 51.46811 | -0.48469 | 86 ft | 13 kts | 180° |
| 2026-05-07 19:22 | 51.46743 | -0.48544 | 88 ft | 14 kts | 264° |
| 2026-05-07 19:22 | 51.46735 | -0.48718 | 86 ft | 10 kts | 244° |
| 2026-05-07 19:23 | 51.46666 | -0.48748 | 86 ft | 12 kts | 180° |
| 2026-05-07 19:23 | 51.46609 | -0.48763 | 90 ft | 12 kts | 199° |
| 2026-05-07 19:23 | 51.46599 | -0.48769 | 89 ft | 0 kts | 199° |
| 2026-05-07 19:25 | 51.46583 | -0.48777 | 87 ft | 7 kts | 199° |
| 2026-05-07 19:25 | 51.46526 | -0.48783 | 89 ft | 10 kts | 165° |
| 2026-05-07 19:25 | 51.46479 | -0.48699 | 88 ft | 12 kts | 105° |
| 2026-05-07 19:25 | 51.46477 | -0.48557 | 86 ft | 14 kts | 88° |
| 2026-05-07 19:26 | 51.46479 | -0.48434 | 86 ft | 0 kts | 90° |
| 2026-05-07 19:26 | 51.46479 | -0.48355 | 87 ft | 36 kts | 90° |
| 2026-05-07 19:26 | 51.46481 | -0.47478 | 86 ft | 117 kts | 89° |
| 2026-05-07 19:26 | 51.46493 | -0.45863 | 198 ft | 163 kts | 91° |
| 2026-05-07 19:27 | 51.46498 | -0.44032 | 1017 ft | 165 kts | 91° |
| 2026-05-07 19:27 | 51.46528 | -0.42185 | 1721 ft | 168 kts | 87° |
| 2026-05-07 19:27 | 51.46783 | -0.40249 | 1978 ft | 190 kts | 72° |
| 2026-05-07 19:27 | 51.47427 | -0.38310 | 2312 ft | 206 kts | 54° |
| 2026-05-07 19:28 | 51.48382 | -0.36491 | 2649 ft | 225 kts | 51° |
| 2026-05-07 19:28 | 51.49446 | -0.34454 | 3006 ft | 249 kts | 51° |
| 2026-05-07 19:28 | 51.50574 | -0.32277 | 3752 ft | 257 kts | 51° |
| 2026-05-07 19:28 | 51.51724 | -0.30057 | 4644 ft | 260 kts | 51° |
| 2026-05-07 19:29 | 51.52733 | -0.27645 | 5497 ft | 264 kts | 64° |
| 2026-05-07 19:29 | 51.53404 | -0.24866 | 6308 ft | 269 kts | 70° |
| 2026-05-07 19:29 | 51.54323 | -0.22236 | 7043 ft | 275 kts | 49° |
| 2026-05-07 19:29 | 51.55813 | -0.20277 | 7749 ft | 281 kts | 26° |
| 2026-05-07 19:30 | 51.57622 | -0.19022 | 8544 ft | 285 kts | 22° |
| 2026-05-07 19:30 | 51.59484 | -0.17847 | 9308 ft | 289 kts | 15° |
| 2026-05-07 19:30 | 51.61427 | -0.16934 | 10043 ft | 294 kts | 15° |
| 2026-05-07 19:30 | 51.63434 | -0.15999 | 10463 ft | 310 kts | 15° |
| 2026-05-07 19:31 | 51.65590 | -0.15003 | 10634 ft | 333 kts | 15° |
| 2026-05-07 19:31 | 51.67848 | -0.13902 | 11064 ft | 344 kts | 21° |
| 2026-05-07 19:31 | 51.69908 | -0.11894 | 11661 ft | 350 kts | 42° |
| 2026-05-07 19:31 | 51.71416 | -0.08806 | 12294 ft | 353 kts | 64° |
| 2026-05-07 19:32 | 51.72333 | -0.05170 | 12949 ft | 356 kts | 70° |
| 2026-05-07 19:32 | 51.73200 | -0.01412 | 13625 ft | 359 kts | 71° |
| 2026-05-07 19:32 | 51.74068 | 0.02389 | 14246 ft | 362 kts | 71° |
| 2026-05-07 19:32 | 51.74942 | 0.06214 | 14832 ft | 365 kts | 71° |
| 2026-05-07 19:33 | 51.75828 | 0.10084 | 15389 ft | 369 kts | 71° |
| 2026-05-07 19:33 | 51.76721 | 0.13983 | 15950 ft | 372 kts | 71° |
| 2026-05-07 19:33 | 51.77623 | 0.17921 | 16508 ft | 375 kts | 70° |
| 2026-05-07 19:33 | 51.78532 | 0.21896 | 17069 ft | 379 kts | 70° |
| 2026-05-07 19:34 | 51.79449 | 0.25915 | 17632 ft | 382 kts | 70° |
| 2026-05-07 19:34 | 51.80370 | 0.29960 | 18199 ft | 386 kts | 70° |
| 2026-05-07 19:34 | 51.81297 | 0.34049 | 18731 ft | 390 kts | 70° |
| 2026-05-07 19:34 | 51.82236 | 0.38188 | 19252 ft | 393 kts | 70° |
| 2026-05-07 19:35 | 51.83175 | 0.42346 | 19770 ft | 396 kts | 70° |
| 2026-05-07 19:35 | 51.84123 | 0.46552 | 20310 ft | 399 kts | 70° |
| 2026-05-07 19:35 | 51.85076 | 0.50794 | 20827 ft | 402 kts | 70° |
| 2026-05-07 19:35 | 51.86036 | 0.55067 | 21337 ft | 406 kts | 70° |
| 2026-05-07 19:36 | 51.87003 | 0.59375 | 21831 ft | 409 kts | 70° |
| 2026-05-07 19:36 | 51.87975 | 0.63707 | 22324 ft | 412 kts | 70° |
| 2026-05-07 19:36 | 51.88956 | 0.68091 | 22809 ft | 415 kts | 70° |
| 2026-05-07 19:36 | 51.89939 | 0.72517 | 23282 ft | 419 kts | 70° |
| 2026-05-07 19:37 | 51.90925 | 0.76967 | 23734 ft | 422 kts | 70° |
| 2026-05-07 19:37 | 51.91918 | 0.81452 | 24125 ft | 425 kts | 70° |
| 2026-05-07 19:37 | 51.92918 | 0.85971 | 24511 ft | 427 kts | 70° |
| 2026-05-07 19:37 | 51.93911 | 0.90463 | 24881 ft | 430 kts | 70° |
| 2026-05-07 19:38 | 51.94934 | 0.95103 | 25261 ft | 433 kts | 70° |
| 2026-05-07 19:38 | 51.95949 | 0.99707 | 25623 ft | 435 kts | 70° |
| 2026-05-07 19:38 | 51.96954 | 1.04269 | 25987 ft | 437 kts | 70° |
| 2026-05-07 19:38 | 51.97977 | 1.08928 | 26345 ft | 440 kts | 70° |
| 2026-05-07 19:39 | 51.99003 | 1.13622 | 26698 ft | 442 kts | 70° |
| 2026-05-07 19:39 | 52.00032 | 1.18338 | 27046 ft | 444 kts | 70° |
| 2026-05-07 19:39 | 52.01065 | 1.23083 | 27393 ft | 447 kts | 70° |
| 2026-05-07 19:39 | 52.02102 | 1.27859 | 27735 ft | 449 kts | 70° |
| 2026-05-07 19:40 | 52.03142 | 1.32658 | 28059 ft | 452 kts | 70° |
| 2026-05-07 19:40 | 52.04185 | 1.37487 | 28413 ft | 454 kts | 70° |
| 2026-05-07 19:40 | 52.05229 | 1.42338 | 28775 ft | 456 kts | 71° |
| 2026-05-07 19:40 | 52.06277 | 1.47211 | 29107 ft | 458 kts | 71° |
| 2026-05-07 19:41 | 52.07330 | 1.52116 | 29456 ft | 460 kts | 71° |
| 2026-05-07 19:41 | 52.08381 | 1.57030 | 29794 ft | 462 kts | 71° |
| 2026-05-07 19:41 | 52.09434 | 1.61978 | 30181 ft | 462 kts | 71° |
| 2026-05-07 19:41 | 52.10482 | 1.66908 | 30572 ft | 461 kts | 71° |
| 2026-05-07 19:42 | 52.11533 | 1.71840 | 30955 ft | 461 kts | 71° |
| 2026-05-07 19:42 | 52.12580 | 1.76766 | 31342 ft | 460 kts | 71° |
| 2026-05-07 19:42 | 52.13623 | 1.81684 | 31718 ft | 460 kts | 71° |
| 2026-05-07 19:42 | 52.14661 | 1.86598 | 32103 ft | 459 kts | 71° |
| 2026-05-07 19:43 | 52.15696 | 1.91515 | 32498 ft | 459 kts | 71° |
| 2026-05-07 19:43 | 52.16729 | 1.96439 | 32893 ft | 458 kts | 71° |
| 2026-05-07 19:43 | 52.17746 | 2.01295 | 33281 ft | 458 kts | 71° |
| 2026-05-07 19:43 | 52.18768 | 2.06208 | 33689 ft | 457 kts | 71° |
| 2026-05-07 19:44 | 52.19785 | 2.11103 | 34082 ft | 456 kts | 71° |
| 2026-05-07 19:44 | 52.20802 | 2.15999 | 34396 ft | 456 kts | 71° |
| 2026-05-07 19:44 | 52.21819 | 2.20897 | 34692 ft | 456 kts | 71° |
| 2026-05-07 19:44 | 52.22835 | 2.25804 | 34977 ft | 456 kts | 71° |
| 2026-05-07 19:45 | 52.23845 | 2.30702 | 35249 ft | 456 kts | 71° |
| 2026-05-07 19:45 | 52.24853 | 2.35598 | 35518 ft | 456 kts | 72° |
| 2026-05-07 19:45 | 52.25860 | 2.40506 | 35783 ft | 455 kts | 72° |
| 2026-05-07 19:45 | 52.26855 | 2.45362 | 36094 ft | 454 kts | 72° |
| 2026-05-07 19:46 | 52.27865 | 2.50292 | 36389 ft | 453 kts | 72° |
| 2026-05-07 19:46 | 52.28858 | 2.55176 | 36654 ft | 453 kts | 72° |
| 2026-05-07 19:46 | 52.29846 | 2.60062 | 36897 ft | 452 kts | 72° |
| 2026-05-07 19:46 | 52.30832 | 2.64947 | 37072 ft | 453 kts | 72° |
| 2026-05-07 19:47 | 52.32684 | 2.74887 | 37110 ft | 461 kts | 75° |
| 2026-05-07 19:47 | 52.34401 | 2.84949 | 37111 ft | 463 kts | 75° |
| 2026-05-07 19:48 | 52.36122 | 2.95105 | 37110 ft | 463 kts | 75° |
| 2026-05-07 19:48 | 52.37879 | 3.05254 | 37108 ft | 463 kts | 75° |
| 2026-05-07 19:49 | 52.39661 | 3.15388 | 37114 ft | 464 kts | 71° |
| 2026-05-07 19:49 | 52.42252 | 3.25086 | 37121 ft | 465 kts | 65° |
| 2026-05-07 19:50 | 52.44969 | 3.34707 | 37126 ft | 465 kts | 65° |
| 2026-05-07 19:50 | 52.47678 | 3.44352 | 37138 ft | 466 kts | 66° |
| 2026-05-07 19:51 | 52.50378 | 3.54009 | 37132 ft | 465 kts | 66° |
| 2026-05-07 19:51 | 52.53064 | 3.63659 | 37136 ft | 464 kts | 66° |
| 2026-05-07 19:52 | 52.55733 | 3.73308 | 37137 ft | 464 kts | 66° |
| 2026-05-07 19:52 | 52.58377 | 3.82913 | 37133 ft | 464 kts | 66° |
| 2026-05-07 19:53 | 52.61032 | 3.92581 | 37134 ft | 463 kts | 66° |
| 2026-05-07 19:53 | 52.63674 | 4.02242 | 37118 ft | 463 kts | 66° |
| 2026-05-07 19:54 | 52.66312 | 4.11920 | 37120 ft | 463 kts | 66° |
| 2026-05-07 19:54 | 52.68946 | 4.21608 | 37119 ft | 463 kts | 66° |
| 2026-05-07 19:55 | 52.71569 | 4.31320 | 37129 ft | 463 kts | 66° |
| 2026-05-07 19:55 | 52.74178 | 4.41024 | 37127 ft | 462 kts | 66° |
| 2026-05-07 19:56 | 52.76763 | 4.50673 | 37122 ft | 462 kts | 67° |
| 2026-05-07 19:56 | 52.79351 | 4.60380 | 37130 ft | 462 kts | 67° |
| 2026-05-07 19:57 | 52.81928 | 4.70079 | 37132 ft | 461 kts | 67° |
| 2026-05-07 19:57 | 52.84498 | 4.79800 | 37131 ft | 461 kts | 67° |
| 2026-05-07 19:58 | 52.87062 | 4.89528 | 37131 ft | 461 kts | 67° |
| 2026-05-07 19:58 | 52.89616 | 4.99266 | 37131 ft | 461 kts | 67° |
| 2026-05-07 19:59 | 52.92163 | 5.09018 | 37141 ft | 461 kts | 67° |
| 2026-05-07 19:59 | 52.94705 | 5.18761 | 37141 ft | 460 kts | 67° |
| 2026-05-07 20:00 | 52.97217 | 5.28458 | 37139 ft | 459 kts | 68° |
| 2026-05-07 20:00 | 52.99734 | 5.38222 | 37138 ft | 459 kts | 68° |
| 2026-05-07 20:01 | 53.02236 | 5.47971 | 37128 ft | 459 kts | 68° |
| 2026-05-07 20:01 | 53.04713 | 5.57679 | 37129 ft | 459 kts | 68° |
| 2026-05-07 20:02 | 53.07206 | 5.67466 | 37143 ft | 459 kts | 68° |
| 2026-05-07 20:02 | 53.09681 | 5.77250 | 37153 ft | 459 kts | 68° |
| 2026-05-07 20:03 | 53.12155 | 5.87085 | 37154 ft | 458 kts | 68° |
| 2026-05-07 20:03 | 53.14607 | 5.96825 | 37151 ft | 457 kts | 68° |
| 2026-05-07 20:04 | 53.17040 | 6.06553 | 37156 ft | 457 kts | 68° |
| 2026-05-07 20:04 | 53.19471 | 6.16324 | 37136 ft | 457 kts | 68° |
| 2026-05-07 20:05 | 53.21894 | 6.26127 | 37140 ft | 457 kts | 68° |
| 2026-05-07 20:05 | 53.24320 | 6.35948 | 37131 ft | 457 kts | 68° |
| 2026-05-07 20:06 | 53.26738 | 6.45766 | 37135 ft | 457 kts | 68° |
| 2026-05-07 20:06 | 53.29140 | 6.55601 | 37134 ft | 457 kts | 69° |
| 2026-05-07 20:07 | 53.31534 | 6.65448 | 37151 ft | 457 kts | 69° |
| 2026-05-07 20:07 | 53.33923 | 6.75305 | 37148 ft | 458 kts | 69° |
| 2026-05-07 20:08 | 53.36294 | 6.85129 | 37143 ft | 458 kts | 69° |
| 2026-05-07 20:08 | 53.38675 | 6.95041 | 37152 ft | 459 kts | 69° |
| 2026-05-07 20:09 | 53.41045 | 7.04934 | 37171 ft | 456 kts | 69° |
| 2026-05-07 20:10 | 53.44567 | 7.19729 | 36438 ft | 459 kts | 69° |
| 2026-05-07 20:10 | 53.45733 | 7.24672 | 35672 ft | 454 kts | 69° |
| 2026-05-07 20:10 | 53.46891 | 7.29579 | 34711 ft | 451 kts | 69° |
| 2026-05-07 20:10 | 53.48039 | 7.34437 | 34007 ft | 442 kts | 69° |
| 2026-05-07 20:11 | 53.49160 | 7.39195 | 33183 ft | 434 kts | 69° |
| 2026-05-07 20:11 | 53.50260 | 7.43874 | 32343 ft | 427 kts | 69° |
| 2026-05-07 20:11 | 53.51336 | 7.48482 | 31509 ft | 421 kts | 69° |
| 2026-05-07 20:11 | 53.52033 | 7.51488 | 31046 ft | 415 kts | 69° |
| 2026-05-07 20:12 | 53.53071 | 7.55971 | 30315 ft | 407 kts | 69° |
| 2026-05-07 20:12 | 53.54091 | 7.60370 | 29438 ft | 401 kts | 69° |
| 2026-05-07 20:12 | 53.55429 | 7.66117 | 28297 ft | 395 kts | 69° |
| 2026-05-07 20:12 | 53.56101 | 7.69008 | 27752 ft | 393 kts | 69° |
| 2026-05-07 20:13 | 53.57090 | 7.73278 | 27169 ft | 391 kts | 69° |
| 2026-05-07 20:13 | 53.58069 | 7.77520 | 26766 ft | 388 kts | 69° |
| 2026-05-07 20:13 | 53.59041 | 7.81740 | 26296 ft | 385 kts | 69° |
| 2026-05-07 20:13 | 53.60007 | 7.85943 | 25727 ft | 384 kts | 69° |
| 2026-05-07 20:14 | 53.60952 | 7.90075 | 25208 ft | 382 kts | 69° |
| 2026-05-07 20:14 | 53.61905 | 7.94245 | 24691 ft | 379 kts | 69° |
| 2026-05-07 20:14 | 53.62848 | 7.98381 | 24172 ft | 377 kts | 69° |
| 2026-05-07 20:14 | 53.63763 | 8.02494 | 23664 ft | 374 kts | 70° |
| 2026-05-07 20:15 | 53.64603 | 8.06623 | 23050 ft | 371 kts | 72° |
| 2026-05-07 20:15 | 53.65389 | 8.10752 | 22467 ft | 368 kts | 73° |
| 2026-05-07 20:15 | 53.66147 | 8.14855 | 21879 ft | 365 kts | 73° |
| 2026-05-07 20:15 | 53.66895 | 8.18925 | 21303 ft | 362 kts | 73° |
| 2026-05-07 20:16 | 53.67644 | 8.22960 | 20752 ft | 359 kts | 72° |
| 2026-05-07 20:16 | 53.68394 | 8.26969 | 20183 ft | 357 kts | 72° |
| 2026-05-07 20:16 | 53.69141 | 8.30943 | 19651 ft | 354 kts | 72° |
| 2026-05-07 20:16 | 53.69887 | 8.34893 | 19120 ft | 351 kts | 72° |
| 2026-05-07 20:17 | 53.70629 | 8.38805 | 18608 ft | 349 kts | 72° |
| 2026-05-07 20:17 | 53.71353 | 8.42640 | 18063 ft | 346 kts | 72° |
| 2026-05-07 20:17 | 53.72079 | 8.46500 | 17469 ft | 344 kts | 72° |
| 2026-05-07 20:17 | 53.72799 | 8.50339 | 16918 ft | 341 kts | 72° |
| 2026-05-07 20:18 | 53.73511 | 8.54132 | 16382 ft | 338 kts | 72° |
| 2026-05-07 20:18 | 53.74220 | 8.57914 | 15838 ft | 336 kts | 72° |
| 2026-05-07 20:18 | 53.74923 | 8.61659 | 15335 ft | 333 kts | 72° |
| 2026-05-07 20:18 | 53.75617 | 8.65384 | 14819 ft | 330 kts | 72° |
| 2026-05-07 20:19 | 53.76301 | 8.69075 | 14323 ft | 328 kts | 72° |
| 2026-05-07 20:19 | 53.76978 | 8.72738 | 13830 ft | 325 kts | 72° |
| 2026-05-07 20:19 | 53.77653 | 8.76386 | 13283 ft | 323 kts | 72° |
| 2026-05-07 20:19 | 53.78322 | 8.80001 | 12772 ft | 320 kts | 72° |
| 2026-05-07 20:20 | 53.78980 | 8.83572 | 12274 ft | 317 kts | 72° |
| 2026-05-07 20:20 | 53.79634 | 8.87121 | 11782 ft | 315 kts | 72° |
| 2026-05-07 20:20 | 53.80282 | 8.90642 | 11333 ft | 313 kts | 73° |
| 2026-05-07 20:20 | 53.80920 | 8.94136 | 10995 ft | 309 kts | 73° |
| 2026-05-07 20:21 | 53.81550 | 8.97599 | 10652 ft | 307 kts | 73° |
| 2026-05-07 20:21 | 53.82168 | 9.00998 | 10305 ft | 305 kts | 73° |
| 2026-05-07 20:21 | 53.82680 | 9.04495 | 10042 ft | 299 kts | 82° |
| 2026-05-07 20:21 | 53.82789 | 9.07883 | 9800 ft | 287 kts | 93° |
| 2026-05-07 20:22 | 53.82618 | 9.11209 | 9299 ft | 282 kts | 96° |
| 2026-05-07 20:22 | 53.82426 | 9.14494 | 8872 ft | 280 kts | 95° |
| 2026-05-07 20:22 | 53.82234 | 9.17753 | 8577 ft | 277 kts | 95° |
| 2026-05-07 20:22 | 53.82044 | 9.20974 | 8281 ft | 274 kts | 95° |
| 2026-05-07 20:23 | 53.81856 | 9.24174 | 7948 ft | 272 kts | 95° |
| 2026-05-07 20:23 | 53.81668 | 9.27349 | 7644 ft | 270 kts | 95° |
| 2026-05-07 20:23 | 53.81482 | 9.30504 | 7327 ft | 268 kts | 96° |
| 2026-05-07 20:23 | 53.81079 | 9.33572 | 7025 ft | 267 kts | 108° |
| 2026-05-07 20:24 | 53.80315 | 9.36430 | 6716 ft | 267 kts | 119° |
| 2026-05-07 20:24 | 53.79289 | 9.39037 | 6390 ft | 266 kts | 123° |
| 2026-05-07 20:24 | 53.78256 | 9.41614 | 6154 ft | 261 kts | 122° |
| 2026-05-07 20:24 | 53.77225 | 9.44082 | 6017 ft | 253 kts | 130° |
| 2026-05-07 20:25 | 53.75857 | 9.45866 | 5886 ft | 247 kts | 153° |
| 2026-05-07 20:25 | 53.74226 | 9.46602 | 5753 ft | 241 kts | 175° |
| 2026-05-07 20:25 | 53.72574 | 9.46257 | 5534 ft | 240 kts | 197° |
| 2026-05-07 20:25 | 53.71100 | 9.44975 | 5277 ft | 238 kts | 209° |
| 2026-05-07 20:26 | 53.69575 | 9.43980 | 4985 ft | 234 kts | 187° |
| 2026-05-07 20:26 | 53.67968 | 9.43892 | 4691 ft | 230 kts | 172° |
| 2026-05-07 20:26 | 53.66412 | 9.44453 | 4377 ft | 228 kts | 164° |
| 2026-05-07 20:26 | 53.64875 | 9.45091 | 4097 ft | 227 kts | 165° |
| 2026-05-07 20:27 | 53.63340 | 9.45703 | 3995 ft | 226 kts | 165° |
| 2026-05-07 20:27 | 53.61808 | 9.46308 | 4007 ft | 227 kts | 165° |
| 2026-05-07 20:27 | 53.60267 | 9.46913 | 4005 ft | 228 kts | 164° |
| 2026-05-07 20:27 | 53.58743 | 9.47512 | 4007 ft | 228 kts | 164° |
| 2026-05-07 20:28 | 53.57197 | 9.48119 | 4004 ft | 228 kts | 164° |
| 2026-05-07 20:28 | 53.55669 | 9.48797 | 4002 ft | 227 kts | 158° |
| 2026-05-07 20:28 | 53.54207 | 9.49776 | 4005 ft | 226 kts | 155° |
| 2026-05-07 20:28 | 53.52761 | 9.50817 | 4003 ft | 226 kts | 154° |
| 2026-05-07 20:29 | 53.51318 | 9.51867 | 4008 ft | 226 kts | 154° |
| 2026-05-07 20:29 | 53.49873 | 9.52919 | 4006 ft | 226 kts | 154° |
| 2026-05-07 20:29 | 53.48450 | 9.54027 | 4004 ft | 225 kts | 145° |
| 2026-05-07 20:29 | 53.47243 | 9.55667 | 4007 ft | 223 kts | 135° |
| 2026-05-07 20:30 | 53.46121 | 9.57476 | 4003 ft | 223 kts | 129° |
| 2026-05-07 20:30 | 53.45454 | 9.59759 | 4007 ft | 220 kts | 97° |
| 2026-05-07 20:30 | 53.45589 | 9.62298 | 3970 ft | 218 kts | 77° |
| 2026-05-07 20:30 | 53.46099 | 9.64688 | 3649 ft | 219 kts | 59° |
| 2026-05-07 20:31 | 53.47017 | 9.66687 | 3486 ft | 213 kts | 52° |
| 2026-05-07 20:31 | 53.47964 | 9.68544 | 3353 ft | 205 kts | 52° |
| 2026-05-07 20:31 | 53.48865 | 9.70330 | 3220 ft | 196 kts | 52° |
| 2026-05-07 20:31 | 53.49721 | 9.72037 | 3110 ft | 186 kts | 52° |
| 2026-05-07 20:32 | 53.50532 | 9.73659 | 3017 ft | 176 kts | 52° |
| 2026-05-07 20:32 | 53.51298 | 9.75194 | 3010 ft | 173 kts | 53° |
| 2026-05-07 20:32 | 53.52066 | 9.76734 | 3059 ft | 171 kts | 53° |
| 2026-05-07 20:32 | 53.52828 | 9.78261 | 2901 ft | 167 kts | 53° |
| 2026-05-07 20:33 | 53.53581 | 9.79772 | 2661 ft | 168 kts | 53° |
| 2026-05-07 20:33 | 53.54331 | 9.81278 | 2437 ft | 168 kts | 53° |
| 2026-05-07 20:33 | 53.55078 | 9.82778 | 2212 ft | 167 kts | 53° |
| 2026-05-07 20:33 | 53.55825 | 9.84280 | 1989 ft | 167 kts | 53° |
| 2026-05-07 20:34 | 53.56554 | 9.85744 | 1751 ft | 154 kts | 53° |
| 2026-05-07 20:34 | 53.57208 | 9.87059 | 1549 ft | 142 kts | 53° |
| 2026-05-07 20:34 | 53.57832 | 9.88314 | 1363 ft | 138 kts | 52° |
| 2026-05-07 20:34 | 53.58442 | 9.89546 | 1176 ft | 136 kts | 52° |
| 2026-05-07 20:35 | 53.59043 | 9.90757 | 993 ft | 133 kts | 53° |
| 2026-05-07 20:35 | 53.59632 | 9.91944 | 805 ft | 132 kts | 52° |
| 2026-05-07 20:35 | 53.60213 | 9.93117 | 637 ft | 132 kts | 51° |
| 2026-05-07 20:35 | 53.60810 | 9.94321 | 452 ft | 132 kts | 51° |
| 2026-05-07 20:36 | 53.61395 | 9.95502 | 255 ft | 133 kts | 51° |
| 2026-05-07 20:36 | 53.61987 | 9.96696 | 97 ft | 133 kts | 51° |
| 2026-05-07 20:36 | 53.62551 | 9.97839 | 42 ft | 111 kts | 50° |
| 2026-05-07 20:36 | 53.62937 | 9.98624 | 43 ft | 67 kts | 50° |
| 2026-05-07 20:37 | 53.63141 | 9.99038 | 46 ft | 38 kts | 50° |
| 2026-05-07 20:37 | 53.63272 | 9.99326 | 47 ft | 27 kts | 66° |
| 2026-05-07 20:37 | 53.63288 | 9.99541 | 44 ft | 0 kts | 98° |
| 2026-05-07 20:37 | 53.63288 | 9.99542 | 44 ft | 1 kts | 98° |
| 2026-05-07 20:38 | 53.63280 | 9.99630 | 44 ft | 0 kts | 99° |
| 2026-05-07 20:39 | 53.63280 | 9.99631 | 44 ft | 0 kts | 99° |
| 2026-05-07 20:40 | 53.63278 | 9.99648 | 45 ft | 3 kts | 99° |
| 2026-05-07 20:40 | 53.63271 | 9.99696 | 45 ft | 6 kts | 112° |
| 2026-05-07 20:40 | 53.63229 | 9.99757 | 45 ft | 10 kts | 152° |
| 2026-05-07 20:40 | 53.63166 | 9.99811 | 43 ft | 8 kts | 153° |
| 2026-05-07 20:41 | 53.63110 | 9.99860 | 45 ft | 10 kts | 153° |
| 2026-05-07 20:41 | 53.63040 | 9.99920 | 45 ft | 12 kts | 153° |
| 2026-05-07 20:41 | 53.62966 | 9.99983 | 45 ft | 12 kts | 155° |
| 2026-05-07 20:41 | 53.62909 | 10.00062 | 46 ft | 11 kts | 93° |
| 2026-05-07 20:42 | 53.62964 | 10.00150 | 44 ft | 8 kts | 32° |
| 2026-05-07 20:42 | 53.63001 | 10.00189 | 46 ft | 0 kts | 32° |
| 2026-05-07 20:43 | 53.63007 | 10.00195 | 46 ft | 3 kts | 32° |
| 2026-05-07 20:43 | 53.63031 | 10.00221 | 45 ft | 6 kts | 32° |
| 2026-05-07 20:43 | 53.63048 | 10.00238 | 44 ft | 0 kts | 32° |
| 2026-05-07 20:43 | 53.63049 | 10.00240 | 44 ft | 1 kts | 32° |
| 2026-05-07 20:44 | 53.63063 | 10.00254 | 45 ft | 4 kts | 30° |
| 2026-05-07 20:44 | 53.63097 | 10.00261 | 45 ft | 6 kts | 357° |
| 2026-05-07 20:44 | 53.63148 | 10.00264 | 46 ft | 9 kts | 22° |
| 2026-05-07 20:44 | 53.63169 | 10.00348 | 46 ft | 8 kts | 91° |
| 2026-05-07 20:45 | 53.63168 | 10.00376 | 46 ft | 0 kts | 90° |